srworld.net alexa rank chart, srworld.net alexa rank daily changes

srworld.net alexa rank chart, srworld.net alexa rank daily changes

srworld.net
Actual rank:
112 925

RANK HISTORY

Date Rank Diff
2018/04/22 112 925 +68 232
2018/04/21 44 693 +2 136
2018/04/20 42 557 -22 909
2018/04/19 65 466 +21 441
2018/04/18 44 025 +18 623
2018/04/17 25 402 -21 582
2018/04/15 46 984 +25 935
2018/04/14 21 049 -54 911
2018/04/13 75 960 +49 300
2018/04/12 26 660 -80 725
2018/04/11 107 385 +66 852
2018/04/10 40 533 -262 217
2018/04/09 302 750 +266 165
2018/04/08 36 585 -14 098
2018/04/07 50 683 +17 502
2018/04/06 33 181 -19 954
2018/04/05 53 135 -5 595
2018/04/04 58 730 +7 974
2018/04/03 50 756 -154 834
2018/04/02 205 590 +169 496
2018/04/01 36 094 +16 889
2018/03/31 19 205 -13 164
2018/03/30 32 369 -96 795
2018/03/29 129 164 +61 646
2018/03/28 67 518 -46 607
2018/03/27 114 125 +34 494
2018/03/26 79 631 +49 307
2018/03/25 30 324 -45 058
2018/03/24 75 382 +16 641
2018/03/23 58 741 +14 792
2018/03/22 43 949 -25 318
2018/03/21 69 267 -337 828
2018/03/20 407 095 -463 574
2018/03/19 870 669 +742 591
2018/03/18 128 078 +55 340
2018/03/17 72 738 +12 268
2018/03/16 60 470 -75 436
2018/03/15 135 906 +68 908
2018/03/14 66 998 -231 700
2018/03/13 298 698 +240 658
2018/03/11 58 040 -2 317
2018/03/10 60 357 +2 736
2018/03/09 57 621 -9 598
2018/03/08 67 219 -12 958
2018/03/07 80 177 -754 488
2018/03/06 834 665 +711 186
2018/03/04 123 479 +2 470
2018/03/03 121 009 +2 052
2018/03/02 118 957 +19 166
2018/03/01 99 791 -54 436
2018/02/28 154 227 +68 866
2018/02/27 85 361 -420 435
2018/02/23 505 796 +266 049
2018/02/22 239 747 +199 329
2018/02/21 40 418

WIDGET FOR YOUR SITE

DOMAINS WITH THE NEAREST RANK

Domain Rank
systran.fr 112 920
mscsoftware.com 112 921
favjapaneseporn.com 112 922
tempo.com 112 923
liverpoolway.co.uk 112 924
srworld.net 112 925
olgame.tw 112 926
snowmobile.ru 112 927
pubfacts.com 112 928
conseilsmarketing.com 112 929
uop.edu.jo 112 930

DOMAINS WITH THE NEAREST RANK BY TLD .net

Domain Rank
construct.net 112 849
shareflare.net 112 862
zilvia.net 112 882
encceja.net 112 893
clubroadster.net 112 895
srworld.net 112 925
songs-tube.net 113 000
apku.net 113 031
seksdewasaku.net 113 149
rapidhits.net 113 150
eshopfa.net 113 183